createdAt,value
2022-11-16T00:02:18.867Z,99468.13
2022-11-16T00:05:03.767Z,99454.66
2022-11-16T00:07:48.727Z,99455.69
2022-11-16T00:10:33.819Z,99457.31
2022-11-16T00:13:18.875Z,99450.19
2022-11-16T00:16:05.203Z,99452.00
2022-11-16T00:18:55.997Z,99452.38
2022-11-16T00:21:41.446Z,99445.88
2022-11-16T00:24:26.342Z,99446.28
2022-11-16T00:27:11.172Z,99448.75
2022-11-16T00:29:56.080Z,99455.47
2022-11-16T00:32:41.285Z,99452.00
2022-11-16T00:35:26.321Z,99448.28
2022-11-16T00:38:11.495Z,99443.19
2022-11-16T00:40:56.290Z,99436.88
2022-11-16T00:43:41.637Z,99437.69
2022-11-16T00:46:26.490Z,99433.44
2022-11-16T00:49:11.565Z,99429.97
2022-11-16T00:51:56.441Z,99430.56
2022-11-16T00:54:41.508Z,99432.03
2022-11-16T00:57:26.555Z,99434.22
2022-11-16T01:00:12.492Z,99439.53
2022-11-16T01:02:57.727Z,99434.66
2022-11-16T01:05:42.768Z,99438.16
2022-11-16T01:08:28.565Z,99441.63
2022-11-16T01:11:34.258Z,99436.69
2022-11-16T01:14:19.285Z,99431.78
2022-11-16T01:17:04.771Z,99434.44
2022-11-16T01:19:49.714Z,99437.31
2022-11-16T01:22:39.235Z,99440.19
2022-11-16T01:25:24.421Z,99437.94
2022-11-16T01:28:09.453Z,99443.25
2022-11-16T01:30:54.726Z,99440.41
2022-11-16T01:33:40.163Z,99440.59
2022-11-16T01:36:25.221Z,99440.59
2022-11-16T01:39:12.839Z,99441.25
2022-11-16T01:41:57.894Z,99439.59
2022-11-16T01:44:42.902Z,99436.94
2022-11-16T01:47:28.693Z,99444.06
2022-11-16T01:50:16.759Z,99453.41
2022-11-16T01:53:05.572Z,99445.03
2022-11-16T01:55:50.717Z,99441.53
2022-11-16T01:58:36.484Z,99426.84
2022-11-16T02:01:21.857Z,99427.84
2022-11-16T02:04:06.869Z,99429.72
2022-11-16T02:07:16.814Z,99436.25
2022-11-16T02:10:25.229Z,99430.97
2022-11-16T02:13:28.138Z,99432.53
2022-11-16T02:16:41.045Z,99427.88
2022-11-16T02:19:55.602Z,99414.38
2022-11-16T02:22:49.766Z,99406.63
2022-11-16T02:25:51.247Z,99395.44
2022-11-16T02:29:18.945Z,99398.94
2022-11-16T02:32:11.970Z,99388.13
2022-11-16T02:35:12.866Z,99380.78
2022-11-16T02:38:02.494Z,99374.03
2022-11-16T02:40:52.753Z,99358.75
2022-11-16T02:43:42.348Z,99357.97
2022-11-16T02:46:32.398Z,99358.59
2022-11-16T02:49:19.179Z,99360.84
2022-11-16T02:52:04.706Z,99359.22
2022-11-16T02:54:49.577Z,99359.22
2022-11-16T02:57:42.316Z,99365.50
2022-11-16T03:00:35.768Z,99365.13
2022-11-16T03:03:30.497Z,99370.25
2022-11-16T03:06:21.560Z,99372.06
2022-11-16T03:09:14.104Z,99391.00
2022-11-16T03:12:02.034Z,99403.63
2022-11-16T03:15:03.267Z,99396.28
2022-11-16T03:17:50.189Z,99374.25
2022-11-16T03:20:38.155Z,99365.25
2022-11-16T03:23:23.297Z,99373.88
2022-11-16T03:26:12.674Z,99385.91
2022-11-16T03:29:03.033Z,99388.53
2022-11-16T03:31:54.406Z,99394.63
2022-11-16T03:34:44.229Z,99393.84
2022-11-16T03:37:31.157Z,99381.81
2022-11-16T03:40:18.298Z,99395.66
2022-11-16T03:43:06.314Z,99400.13
2022-11-16T03:45:51.371Z,99407.25
2022-11-16T03:48:39.121Z,99409.91
2022-11-16T03:51:24.390Z,99406.81
2022-11-16T03:54:09.410Z,99420.72
2022-11-16T03:56:54.470Z,99424.19
2022-11-16T03:59:39.478Z,99421.09
2022-11-16T04:02:24.405Z,99420.72
2022-11-16T04:05:28.266Z,99416.63
2022-11-16T04:08:35.235Z,99417.41
2022-11-16T04:11:40.796Z,99421.94
2022-11-16T04:14:45.820Z,99419.50
2022-11-16T04:17:49.612Z,99425.19
2022-11-16T04:20:53.204Z,99417.84
2022-11-16T04:23:56.781Z,99419.13
2022-11-16T04:27:04.111Z,99421.94
2022-11-16T04:29:49.207Z,99426.25
2022-11-16T04:32:52.669Z,99434.19
2022-11-16T04:35:56.212Z,99444.59
2022-11-16T04:38:41.214Z,99446.03
2022-11-16T04:41:44.891Z,99454.88
2022-11-16T04:44:49.999Z,99465.50
2022-11-16T04:47:34.849Z,99466.78
2022-11-16T04:50:20.690Z,99464.97
2022-11-16T04:53:07.322Z,99464.56
2022-11-16T04:55:56.655Z,99460.03
2022-11-16T04:58:44.385Z,99448.16
2022-11-16T05:01:48.080Z,99454.66
2022-11-16T05:04:33.423Z,99459.72
2022-11-16T05:07:18.403Z,99462.13
2022-11-16T05:10:05.279Z,99458.41
2022-11-16T05:12:50.143Z,99477.16
2022-11-16T05:15:35.303Z,99470.59
2022-11-16T05:18:20.278Z,99470.78
2022-11-16T05:21:05.291Z,99469.88
2022-11-16T05:24:08.939Z,99468.00
2022-11-16T05:26:54.029Z,99470.41
2022-11-16T05:29:40.430Z,99474.34
2022-11-16T05:32:26.961Z,99476.97
2022-11-16T05:35:11.777Z,99486.03
2022-11-16T05:37:56.913Z,99479.41
2022-11-16T05:40:41.995Z,99479.88
2022-11-16T05:43:26.946Z,99479.56
2022-11-16T05:46:12.104Z,99475.63
2022-11-16T05:48:57.218Z,99480.41
2022-11-16T05:51:44.231Z,99474.13
2022-11-16T05:54:31.093Z,99481.16
2022-11-16T05:57:17.319Z,99482.41
2022-11-16T06:00:03.790Z,99483.16
2022-11-16T06:02:48.677Z,99491.63
2022-11-16T06:05:40.477Z,99491.06
2022-11-16T06:08:25.934Z,99494.91
2022-11-16T06:11:11.335Z,99497.72
2022-11-16T06:13:56.426Z,99506.38
2022-11-16T06:16:41.653Z,99511.59
2022-11-16T06:19:32.048Z,99514.97
2022-11-16T06:22:17.488Z,99517.78
2022-11-16T06:25:02.642Z,99524.88
2022-11-16T06:27:47.454Z,99528.63
2022-11-16T06:30:33.308Z,99530.91
2022-11-16T06:33:18.522Z,99537.13
2022-11-16T06:36:03.662Z,99540.47
2022-11-16T06:38:48.605Z,99539.00
2022-11-16T06:41:37.593Z,99536.00
2022-11-16T06:44:25.268Z,99535.72
2022-11-16T06:47:10.154Z,99534.53
2022-11-16T06:49:55.301Z,99526.81
2022-11-16T06:52:40.506Z,99527.09
2022-11-16T06:55:25.490Z,99521.53
2022-11-16T06:58:10.409Z,99519.63
2022-11-16T07:00:55.539Z,99512.59
2022-11-16T07:03:40.572Z,99496.38
2022-11-16T07:06:25.787Z,99505.56
2022-11-16T07:09:10.617Z,99513.13
2022-11-16T07:11:55.754Z,99535.44
2022-11-16T07:14:40.948Z,99546.91
2022-11-16T07:17:25.781Z,99552.53
2022-11-16T07:20:11.975Z,99559.38
2022-11-16T07:22:59.601Z,99560.88
2022-11-16T07:25:46.662Z,99572.03
2022-11-16T07:28:32.823Z,99585.47
2022-11-16T07:31:18.201Z,99587.16
2022-11-16T07:34:03.145Z,99584.06
2022-11-16T07:36:48.182Z,99591.69
2022-11-16T07:39:33.252Z,99590.69
2022-11-16T07:42:18.514Z,99603.28
2022-11-16T07:45:04.093Z,99610.03
2022-11-16T07:47:52.211Z,99601.94
2022-11-16T07:50:37.042Z,99614.31
2022-11-16T07:53:22.542Z,99611.69
2022-11-16T07:56:08.121Z,99619.75
2022-11-16T07:58:53.284Z,99617.94
2022-11-16T08:01:38.597Z,99622.34
2022-11-16T08:04:23.570Z,99619.22
2022-11-16T08:07:08.582Z,99628.09
2022-11-16T08:09:53.857Z,99627.75
2022-11-16T08:12:38.741Z,99639.50
2022-11-16T08:15:25.188Z,99642.28
2022-11-16T08:18:09.902Z,99652.50
2022-11-16T08:20:55.130Z,99655.78
2022-11-16T08:23:41.052Z,99650.34
2022-11-16T08:26:26.291Z,99658.56
2022-11-16T08:29:11.429Z,99662.63
2022-11-16T08:31:56.532Z,99654.22
2022-11-16T08:34:41.790Z,99650.84
2022-11-16T08:37:28.033Z,99649.47
2022-11-16T08:40:14.473Z,99652.75
2022-11-16T08:42:59.609Z,99654.44
2022-11-16T08:45:48.456Z,99662.44
2022-11-16T08:48:34.750Z,99658.88
2022-11-16T08:51:20.803Z,99652.13
2022-11-16T08:54:06.431Z,99655.25
2022-11-16T08:56:51.750Z,99646.50
2022-11-16T08:59:36.658Z,99639.22
2022-11-16T09:02:25.316Z,99631.91
2022-11-16T09:05:12.044Z,99631.16
2022-11-16T09:07:57.011Z,99638.91
2022-11-16T09:10:42.187Z,99644.41
2022-11-16T09:13:28.192Z,99641.81
2022-11-16T09:16:16.431Z,99647.94
2022-11-16T09:19:01.666Z,99645.69
2022-11-16T09:21:46.413Z,99656.00
2022-11-16T09:24:31.614Z,99649.69
2022-11-16T09:27:16.807Z,99655.66
2022-11-16T09:30:01.875Z,99648.31
2022-11-16T09:32:46.956Z,99646.38
2022-11-16T09:35:34.318Z,99644.88
2022-11-16T09:38:27.001Z,99642.63
2022-11-16T09:41:53.587Z,99642.69
2022-11-16T09:44:59.744Z,99636.28
2022-11-16T09:47:49.434Z,99646.50
2022-11-16T09:50:49.495Z,99642.34
2022-11-16T09:53:56.761Z,99644.84
2022-11-16T09:56:42.989Z,99648.13
2022-11-16T09:59:36.988Z,99650.16
2022-11-16T10:02:32.365Z,99648.19
2022-11-16T10:05:24.762Z,99644.66
2022-11-16T10:08:17.239Z,99633.44
2022-11-16T10:11:53.633Z,99628.13
2022-11-16T10:15:01.283Z,99621.97
2022-11-16T10:18:12.977Z,99615.78
2022-11-16T10:21:12.860Z,99611.53
2022-11-16T10:24:38.417Z,99613.31
2022-11-16T10:27:42.580Z,99606.16
2022-11-16T10:30:28.014Z,99612.09
2022-11-16T10:33:19.529Z,99603.63
2022-11-16T10:36:12.426Z,99607.00
2022-11-16T10:39:00.132Z,99604.91
2022-11-16T10:41:50.362Z,99598.31
2022-11-16T10:44:54.943Z,99590.94
2022-11-16T10:47:50.106Z,99585.16
2022-11-16T10:50:44.032Z,99584.53
2022-11-16T10:53:38.847Z,99580.63
2022-11-16T10:56:40.265Z,99586.59
2022-11-16T10:59:45.318Z,99589.66
2022-11-16T11:02:34.402Z,99575.13
2022-11-16T11:05:20.750Z,99573.88
2022-11-16T11:08:10.534Z,99572.50
2022-11-16T11:11:24.758Z,99564.47
2022-11-16T11:14:12.011Z,99555.28
2022-11-16T11:17:10.315Z,99545.06
2022-11-16T11:20:05.427Z,99553.03
2022-11-16T11:23:03.007Z,99554.47
2022-11-16T11:25:56.619Z,99545.66
2022-11-16T11:28:49.378Z,99553.03
2022-11-16T11:31:42.056Z,99549.34
2022-11-16T11:34:42.605Z,99547.84
2022-11-16T11:37:32.362Z,99545.03
2022-11-16T11:40:25.905Z,99536.84
2022-11-16T11:43:23.076Z,99530.13
2022-11-16T11:46:42.220Z,99527.44
2022-11-16T11:49:40.492Z,99527.22
2022-11-16T11:52:37.643Z,99523.34
2022-11-16T11:55:22.475Z,99519.66
2022-11-16T11:58:15.136Z,99523.97
2022-11-16T12:01:09.164Z,99513.94
2022-11-16T12:04:28.147Z,99508.81
2022-11-16T12:07:33.481Z,99503.91
2022-11-16T12:10:41.480Z,99500.66
2022-11-16T12:13:55.946Z,99499.63
2022-11-16T12:17:19.958Z,99500.25
2022-11-16T12:20:28.709Z,99494.09
2022-11-16T12:23:44.725Z,99491.00
2022-11-16T12:26:51.521Z,99490.13
2022-11-16T12:30:16.303Z,99492.25
2022-11-16T12:33:44.334Z,99487.03
2022-11-16T12:36:37.011Z,99482.72
2022-11-16T12:39:35.469Z,99483.78
2022-11-16T12:42:40.298Z,99481.75
2022-11-16T12:45:49.799Z,99474.66
2022-11-16T12:48:44.366Z,99476.66
2022-11-16T12:51:35.138Z,99465.19
2022-11-16T12:54:38.654Z,99461.56
2022-11-16T12:57:56.343Z,99456.66
2022-11-16T13:01:19.971Z,99457.84
2022-11-16T13:04:12.555Z,99452.88
2022-11-16T13:07:11.171Z,99454.38
2022-11-16T13:10:04.767Z,99451.72
2022-11-16T13:13:09.120Z,99445.81
2022-11-16T13:16:00.209Z,99449.88
2022-11-16T13:18:45.492Z,99447.22
2022-11-16T13:21:41.474Z,99455.00
2022-11-16T13:24:46.574Z,99450.47
2022-11-16T13:27:52.363Z,99446.19
2022-11-16T13:31:01.959Z,99448.88
2022-11-16T13:33:51.352Z,99437.81
2022-11-16T13:36:43.139Z,99433.13
2022-11-16T13:39:57.416Z,99438.88
2022-11-16T13:42:57.166Z,99435.41
2022-11-16T13:45:49.841Z,99434.41
2022-11-16T13:48:38.054Z,99425.03
2022-11-16T13:51:24.519Z,99422.78
2022-11-16T13:57:24.417Z,99424.81
2022-11-16T14:00:19.883Z,99424.59
2022-11-16T14:03:16.848Z,99419.91
2022-11-16T14:06:01.762Z,99427.03
2022-11-16T14:08:51.189Z,99427.66
2022-11-16T14:11:37.642Z,99422.34
2022-11-16T14:15:03.911Z,99425.03
2022-11-16T14:17:48.815Z,99421.91
2022-11-16T14:20:37.513Z,99422.34
2022-11-16T14:23:28.521Z,99421.53
2022-11-16T14:26:26.903Z,99420.72
2022-11-16T14:29:25.904Z,99426.03
2022-11-16T14:32:23.370Z,99418.88
2022-11-16T14:35:25.476Z,99420.91
2022-11-16T14:38:31.267Z,99414.16
2022-11-16T14:41:22.585Z,99413.97
2022-11-16T14:44:10.201Z,99420.94
2022-11-16T14:46:56.376Z,99404.34
2022-11-16T14:49:47.031Z,99408.03
2022-11-16T14:52:38.573Z,99407.22
2022-11-16T14:55:25.728Z,99392.91
2022-11-16T14:58:13.578Z,99391.47
2022-11-16T15:01:01.755Z,99393.53
2022-11-16T15:04:02.261Z,99388.19
2022-11-16T15:06:53.083Z,99379.84
2022-11-16T15:09:41.028Z,99376.16
2022-11-16T15:12:41.708Z,99376.56
2022-11-16T15:15:29.600Z,99372.06
2022-11-16T15:18:19.431Z,99370.44
2022-11-16T15:21:04.293Z,99376.16
2022-11-16T15:24:15.484Z,99373.06
2022-11-16T15:26:57.939Z,99368.75
2022-11-16T15:29:43.018Z,99357.69
2022-11-16T15:32:28.382Z,99352.56
2022-11-16T15:35:22.241Z,99366.47
2022-11-16T15:38:07.110Z,99367.91
2022-11-16T15:40:59.090Z,99369.91
2022-11-16T15:44:12.138Z,99368.28
2022-11-16T15:46:56.602Z,99359.47
2022-11-16T15:49:42.736Z,99360.69
2022-11-16T15:52:47.657Z,99358.78
2022-11-16T15:55:40.670Z,99356.88
2022-11-16T15:58:29.373Z,99344.44
2022-11-16T16:01:15.325Z,99335.00
2022-11-16T16:04:07.621Z,99327.41
2022-11-16T16:06:55.998Z,99329.56
2022-11-16T16:09:41.186Z,99333.34
2022-11-16T16:12:28.913Z,99334.66
2022-11-16T16:15:27.429Z,99330.91
2022-11-16T16:18:39.177Z,99340.09
2022-11-16T16:21:26.073Z,99357.81
2022-11-16T16:24:33.727Z,99359.00
2022-11-16T16:27:23.933Z,99345.28
2022-11-16T16:30:14.368Z,99356.00
2022-11-16T16:32:59.687Z,99356.28
2022-11-16T16:35:45.457Z,99357.47
2022-11-16T16:38:30.636Z,99351.81
2022-11-16T16:41:23.791Z,99339.28
2022-11-16T16:44:16.211Z,99322.53
2022-11-16T16:47:01.290Z,99318.81
2022-11-16T16:49:47.586Z,99316.75
2022-11-16T16:52:32.290Z,99313.66
2022-11-16T16:55:17.401Z,99316.69
2022-11-16T16:58:02.813Z,99319.22
2022-11-16T17:00:48.080Z,99313.59
2022-11-16T17:03:33.580Z,99311.91
2022-11-16T17:06:18.887Z,99328.88
2022-11-16T17:09:04.238Z,99314.63
2022-11-16T17:11:49.061Z,99304.53
2022-11-16T17:14:34.042Z,99300.69
2022-11-16T17:17:20.022Z,99300.69
2022-11-16T17:20:06.032Z,99296.41
2022-11-16T17:22:50.920Z,99289.66
2022-11-16T17:25:37.676Z,99288.97
2022-11-16T17:28:22.489Z,99287.47
2022-11-16T17:31:10.562Z,99291.22
2022-11-16T17:33:57.583Z,99283.91
2022-11-16T17:36:43.145Z,99279.59
2022-11-16T17:39:28.070Z,99282.06
2022-11-16T17:42:13.254Z,99285.34
2022-11-16T17:44:58.086Z,99281.00
2022-11-16T17:47:43.152Z,99277.78
2022-11-16T17:50:28.206Z,99267.19
2022-11-16T17:53:13.463Z,99262.22
2022-11-16T17:55:58.546Z,99259.75
2022-11-16T17:58:45.108Z,99261.44
2022-11-16T18:01:30.086Z,99260.19
2022-11-16T18:04:14.930Z,99267.31
2022-11-16T18:07:00.941Z,99265.03
2022-11-16T18:09:45.961Z,99271.78
2022-11-16T18:12:31.233Z,99261.88
2022-11-16T18:15:28.433Z,99260.47
2022-11-16T18:18:13.919Z,99267.41
2022-11-16T18:21:00.246Z,99266.06
2022-11-16T18:23:45.179Z,99260.13
2022-11-16T18:26:30.146Z,99251.69
2022-11-16T18:29:18.462Z,99256.25
2022-11-16T18:32:03.909Z,99260.69
2022-11-16T18:34:48.991Z,99265.72
2022-11-16T18:37:34.049Z,99272.28
2022-11-16T18:40:19.119Z,99278.09
2022-11-16T18:43:04.023Z,99267.22
2022-11-16T18:45:49.060Z,99264.19
2022-11-16T18:48:34.208Z,99256.53
2022-11-16T18:51:20.181Z,99255.53
2022-11-16T18:54:05.183Z,99260.44
2022-11-16T18:56:50.126Z,99250.34
2022-11-16T18:59:35.235Z,99246.03
2022-11-16T19:02:21.040Z,99243.84
2022-11-16T19:05:07.382Z,99243.03
2022-11-16T19:07:52.849Z,99246.66
2022-11-16T19:10:38.338Z,99234.47
2022-11-16T19:13:23.158Z,99235.28
2022-11-16T19:16:10.273Z,99238.38
2022-11-16T19:18:55.426Z,99238.13
2022-11-16T19:21:41.677Z,99221.06
2022-11-16T19:24:26.620Z,99225.28
2022-11-16T19:27:11.980Z,99225.47
2022-11-16T19:29:57.107Z,99233.00
2022-11-16T19:32:42.326Z,99224.66
2022-11-16T19:35:27.347Z,99223.22
2022-11-16T19:38:12.276Z,99220.56
2022-11-16T19:40:57.488Z,99216.66
2022-11-16T19:43:42.887Z,99214.81
2022-11-16T19:46:32.152Z,99212.44
2022-11-16T19:49:20.171Z,99206.16
2022-11-16T19:52:05.328Z,99204.75
2022-11-16T19:54:50.175Z,99200.13
2022-11-16T19:57:35.375Z,99198.94
2022-11-16T20:00:20.461Z,99185.88
2022-11-16T20:03:05.444Z,99181.41
2022-11-16T20:05:50.786Z,99177.34
2022-11-16T20:08:37.300Z,99160.03
2022-11-16T20:11:24.210Z,99161.47
2022-11-16T20:14:11.564Z,99143.59
2022-11-16T20:16:56.241Z,99136.94
2022-11-16T20:19:41.621Z,99133.94
2022-11-16T20:22:26.413Z,99128.63
2022-11-16T20:25:14.864Z,99122.31
2022-11-16T20:28:00.106Z,99116.03
2022-11-16T20:30:47.115Z,99115.00
2022-11-16T20:33:33.710Z,99112.38
2022-11-16T20:36:20.263Z,99108.56
2022-11-16T20:39:05.049Z,99114.88
2022-11-16T20:41:50.288Z,99111.63
2022-11-16T20:44:35.476Z,99109.03
2022-11-16T20:47:20.500Z,99110.91
2022-11-16T20:50:05.817Z,99111.53
2022-11-16T20:52:52.851Z,99110.31
2022-11-16T20:55:38.269Z,99099.53
2022-11-16T20:58:23.917Z,99094.25
2022-11-16T21:01:12.704Z,99093.84
2022-11-16T21:04:00.061Z,99091.56
2022-11-16T21:06:45.181Z,99081.25
2022-11-16T21:09:49.906Z,99058.06
2022-11-16T21:12:53.134Z,99054.25
2022-11-16T21:15:38.347Z,99066.06
2022-11-16T21:18:27.832Z,99059.16
2022-11-16T21:21:15.255Z,99057.50
2022-11-16T21:24:00.484Z,99049.19
2022-11-16T21:26:45.322Z,99033.75
2022-11-16T21:29:30.569Z,99032.16
2022-11-16T21:32:15.764Z,99024.22
2022-11-16T21:35:00.531Z,99026.66
2022-11-16T21:37:45.661Z,99018.31
2022-11-16T21:40:30.657Z,99011.63
2022-11-16T21:43:16.155Z,99004.72
2022-11-16T21:46:03.289Z,99000.88
2022-11-16T21:48:48.557Z,99006.00
2022-11-16T21:51:33.547Z,98996.22
2022-11-16T21:54:18.233Z,98993.78
2022-11-16T21:57:03.251Z,98987.25
2022-11-16T21:59:48.287Z,98991.94
2022-11-16T22:02:34.090Z,98978.31
2022-11-16T22:05:38.479Z,98975.25
2022-11-16T22:08:23.493Z,98979.13
2022-11-16T22:11:09.458Z,98979.53
2022-11-16T22:13:54.406Z,98973.22
2022-11-16T22:16:39.431Z,98963.41
2022-11-16T22:19:24.658Z,98958.31
2022-11-16T22:22:09.488Z,98952.22
2022-11-16T22:24:54.584Z,98943.69
2022-11-16T22:28:05.664Z,98947.94
2022-11-16T22:30:48.731Z,98936.53
2022-11-16T22:33:37.056Z,98930.22
2022-11-16T22:36:22.294Z,98931.84
2022-11-16T22:39:06.978Z,98907.84
2022-11-16T22:41:52.291Z,98894.81
2022-11-16T22:44:37.440Z,98894.63
2022-11-16T22:47:22.499Z,98878.97
2022-11-16T22:50:07.581Z,98881.19
2022-11-16T22:52:52.302Z,98879.59
2022-11-16T22:55:38.578Z,98883.44
2022-11-16T22:58:23.624Z,98870.63
2022-11-16T23:01:09.175Z,98861.06
2022-11-16T23:03:54.286Z,98859.84
2022-11-16T23:06:39.134Z,98850.47
2022-11-16T23:09:24.302Z,98844.59
2022-11-16T23:12:27.705Z,98832.78
2022-11-16T23:15:32.373Z,98827.50
2022-11-16T23:18:19.421Z,98820.56
2022-11-16T23:21:23.258Z,98804.69
2022-11-16T23:24:31.437Z,98790.81
2022-11-16T23:27:31.418Z,98771.50
2022-11-16T23:30:16.619Z,98767.19
2022-11-16T23:33:02.208Z,98770.88
2022-11-16T23:35:47.093Z,98761.69
2022-11-16T23:38:32.197Z,98746.47
2022-11-16T23:41:36.202Z,98744.00
2022-11-16T23:44:21.173Z,98712.22
2022-11-16T23:47:06.138Z,98698.41
2022-11-16T23:49:51.562Z,98691.09
2022-11-16T23:52:36.520Z,98689.66
2022-11-16T23:55:22.988Z,98682.72
2022-11-16T23:58:13.594Z,98682.91
